Time;durP1;ratioP1;P1;durP2;ratioP2;P2;SDS_P1;SDS_P2;PMS_P1;PMS_P2;Temp;Humidity;BMP_temperature;BMP_pressure;BME280_temperature;BME280_humidity;BME280_pressure;Samples;Min_cycle;Max_cycle;Signal;HPM_P1;HPM_P2
2021/04/10 00:01:18;;;;;;;5.40;4.57;;;9.10;55.50;;;;;;6243125;28;20477;-65
2021/04/10 00:04:21;;;;;;;7.87;4.70;;;9.10;55.20;;;;;;6243154;28;20479;-62
2021/04/10 00:07:24;;;;;;;4.27;3.87;;;9.10;55.60;;;;;;6244246;28;20792;-62
2021/04/10 00:10:28;;;;;;;4.37;3.97;;;9.20;55.70;;;;;;6245321;28;20459;-62
2021/04/10 00:13:30;;;;;;;5.90;3.53;;;9.20;55.20;;;;;;6245562;28;20478;-62
2021/04/10 00:16:34;;;;;;;5.50;4.93;;;9.20;55.50;;;;;;6244688;28;20439;-61
2021/04/10 00:19:37;;;;;;;4.83;3.90;;;9.20;55.30;;;;;;6244402;28;20515;-61
2021/04/10 00:22:39;;;;;;;5.07;3.70;;;9.20;55.20;;;;;;6244861;28;20430;-62
2021/04/10 00:25:41;;;;;;;5.90;4.83;;;9.20;55.10;;;;;;6244362;28;20844;-62
2021/04/10 00:28:43;;;;;;;5.90;4.53;;;9.20;54.70;;;;;;6243151;28;20920;-65
2021/04/10 00:31:46;;;;;;;5.70;4.40;;;9.10;55.50;;;;;;6245509;28;20491;-65
2021/04/10 00:34:49;;;;;;;8.23;4.50;;;9.10;55.10;;;;;;6245098;28;20475;-64
2021/04/10 00:37:51;;;;;;;6.13;4.90;;;9.00;55.80;;;;;;6245627;28;20463;-64
2021/04/10 00:40:53;;;;;;;4.27;3.50;;;9.00;55.60;;;;;;6246373;28;20470;-64
2021/04/10 00:43:55;;;;;;;5.67;4.60;;;8.90;56.30;;;;;;6236278;28;20472;-64
2021/04/10 00:46:57;;;;;;;5.50;4.13;;;8.90;56.00;;;;;;6229049;28;20479;-65
2021/04/10 00:50:01;;;;;;;5.33;3.67;;;8.90;55.90;;;;;;6228473;28;20467;-64
2021/04/10 00:53:03;;;;;;;6.87;4.00;;;8.90;55.80;;;;;;6228455;28;20529;-64
2021/04/10 00:56:07;;;;;;;4.40;4.00;;;9.00;56.00;;;;;;6228388;28;20468;-64
2021/04/10 00:59:10;;;;;;;5.63;4.30;;;8.90;55.90;;;;;;6228329;28;20476;-64
2021/04/10 01:02:13;;;;;;;5.40;3.90;;;8.90;55.80;;;;;;6228646;28;20480;-64
2021/04/10 01:05:19;;;;;;;6.20;3.90;;;8.90;56.10;;;;;;6228358;28;20483;-64
2021/04/10 01:08:21;;;;;;;4.63;4.00;;;8.80;55.80;;;;;;6228133;28;20546;-63
2021/04/10 01:11:33;;;;;;;4.33;3.93;;;8.80;55.70;;;;;;6227684;28;20463;-63
2021/04/10 01:14:51;;;;;;;4.83;3.87;;;8.70;55.40;;;;;;6227351;28;20487;-63
2021/04/10 01:17:57;;;;;;;6.33;4.00;;;8.70;55.50;;;;;;6227938;28;20488;-63
2021/04/10 01:21:14;;;;;;;5.00;3.73;;;8.60;55.50;;;;;;6227799;28;20986;-63
2021/04/10 01:24:40;;;;;;;4.60;4.07;;;8.60;55.60;;;;;;6227957;28;20968;-63
2021/04/10 01:27:45;;;;;;;5.17;3.83;;;8.50;55.80;;;;;;6226935;28;20508;-63
2021/04/10 01:30:52;;;;;;;5.63;3.67;;;8.50;55.90;;;;;;6227238;28;20479;-63
2021/04/10 01:34:00;;;;;;;6.93;3.87;;;8.50;55.90;;;;;;6227117;28;20483;-62
2021/04/10 01:37:07;;;;;;;4.33;3.90;;;8.50;56.00;;;;;;6224604;28;20476;-63
2021/04/10 01:40:12;;;;;;;5.13;3.70;;;8.50;56.10;;;;;;6227540;28;20480;-63
2021/04/10 01:43:14;;;;;;;4.27;3.50;;;8.40;56.20;;;;;;6226590;28;20809;-63
2021/04/10 01:46:23;;;;;;;6.97;4.63;;;8.30;56.30;;;;;;6227167;28;20547;-63
2021/04/10 01:49:27;;;;;;;4.57;3.90;;;8.30;57.40;;;;;;6226168;28;20476;-62
2021/04/10 01:52:30;;;;;;;4.37;3.63;;;8.30;56.90;;;;;;6225977;28;20471;-62
2021/04/10 01:55:33;;;;;;;4.40;3.90;;;8.20;56.90;;;;;;6225138;28;20456;-62
2021/04/10 01:58:37;;;;;;;4.23;3.83;;;8.20;56.90;;;;;;6225244;28;20443;-62
2021/04/10 02:01:42;;;;;;;5.40;3.87;;;8.20;57.10;;;;;;6225403;28;21023;-62
2021/04/10 02:04:48;;;;;;;6.60;4.50;;;8.20;57.90;;;;;;6226471;28;20464;-62
2021/04/10 02:07:51;;;;;;;5.70;4.10;;;8.10;57.40;;;;;;6226053;28;20467;-62
2021/04/10 02:10:54;;;;;;;4.90;4.50;;;8.10;57.50;;;;;;6225395;28;20807;-61
2021/04/10 02:14:00;;;;;;;5.70;4.20;;;8.10;57.50;;;;;;6225299;28;20464;-63
2021/04/10 02:17:03;;;;;;;6.80;4.53;;;8.20;57.60;;;;;;6224672;28;20979;-64
2021/04/10 02:20:10;;;;;;;6.77;4.00;;;8.10;57.50;;;;;;6224389;28;20572;-64
2021/04/10 02:23:14;;;;;;;5.23;4.17;;;8.10;57.50;;;;;;6226438;28;20476;-64
2021/04/10 02:26:16;;;;;;;4.07;3.57;;;8.00;57.70;;;;;;6226855;28;20468;-64
2021/04/10 02:29:18;;;;;;;4.43;3.97;;;8.00;57.80;;;;;;6226631;28;20538;-64
2021/04/10 02:32:28;;;;;;;5.70;4.03;;;8.00;57.80;;;;;;6225950;28;20478;-64
2021/04/10 02:35:35;;;;;;;4.57;4.10;;;8.00;57.90;;;;;;6226565;28;20971;-64
2021/04/10 02:38:39;;;;;;;4.80;4.23;;;8.00;58.00;;;;;;6226038;28;20479;-64
2021/04/10 02:41:46;;;;;;;5.07;4.20;;;7.90;58.00;;;;;;6226318;28;20544;-64
2021/04/10 02:44:51;;;;;;;5.10;3.90;;;7.90;58.30;;;;;;6226009;28;20484;-64
2021/04/10 02:47:57;;;;;;;4.70;4.10;;;7.80;58.40;;;;;;6226262;28;20975;-64
2021/04/10 02:51:02;;;;;;;5.80;4.60;;;7.90;58.50;;;;;;6226078;28;20468;-64
2021/04/10 02:54:06;;;;;;;5.47;4.97;;;7.80;58.40;;;;;;6225938;28;20463;-64
2021/04/10 02:57:11;;;;;;;5.67;3.77;;;7.90;58.60;;;;;;6226035;28;20476;-64
2021/04/10 03:00:17;;;;;;;5.10;4.60;;;7.90;58.70;;;;;;6225821;28;20476;-64
2021/04/10 03:03:22;;;;;;;5.07;3.97;;;7.80;58.80;;;;;;6226133;28;20815;-64
2021/04/10 03:06:25;;;;;;;10.00;5.10;;;7.70;59.10;;;;;;6225449;28;20758;-65
2021/04/10 03:09:27;;;;;;;5.67;4.57;;;7.70;59.20;;;;;;6225800;28;20472;-65
2021/04/10 03:12:29;;;;;;;5.43;4.93;;;7.70;59.40;;;;;;6225410;28;20484;-66
2021/04/10 03:15:33;;;;;;;6.20;4.80;;;7.70;59.20;;;;;;6225710;28;20816;-65
2021/04/10 03:18:38;;;;;;;6.27;4.30;;;7.80;59.20;;;;;;6225633;28;20475;-65
2021/04/10 03:21:41;;;;;;;5.70;4.27;;;7.80;59.20;;;;;;6225631;28;20468;-65
2021/04/10 03:24:43;;;;;;;7.60;4.87;;;7.70;59.20;;;;;;6225529;28;20484;-65
2021/04/10 03:27:46;;;;;;;4.63;4.23;;;7.70;59.20;;;;;;6225421;28;20467;-65
2021/04/10 03:30:49;;;;;;;5.63;4.60;;;7.60;59.40;;;;;;6225769;28;20480;-65
2021/04/10 03:33:53;;;;;;;7.03;4.20;;;7.60;59.20;;;;;;6224985;28;20475;-65
2021/04/10 03:36:56;;;;;;;9.97;4.03;;;7.60;59.20;;;;;;6225575;28;20468;-65
2021/04/10 03:39:59;;;;;;;6.10;4.30;;;7.70;59.40;;;;;;6225618;28;20490;-65
2021/04/10 03:43:02;;;;;;;6.73;4.60;;;7.70;59.30;;;;;;6225377;28;20483;-65
2021/04/10 03:46:04;;;;;;;5.97;4.57;;;7.70;59.20;;;;;;6225154;28;20487;-65
2021/04/10 03:49:07;;;;;;;5.03;4.50;;;7.70;59.40;;;;;;6225062;28;20480;-65
2021/04/10 03:52:10;;;;;;;5.57;4.60;;;7.70;59.40;;;;;;6225142;28;20972;-65
2021/04/10 03:55:13;;;;;;;5.40;5.00;;;7.60;59.60;;;;;;6224966;28;20924;-65
2021/04/10 03:58:16;;;;;;;7.17;4.50;;;7.60;59.80;;;;;;6224834;28;20479;-65
2021/04/10 04:01:18;;;;;;;5.40;3.70;;;7.50;60.10;;;;;;6224957;28;20472;-65
2021/04/10 04:04:21;;;;;;;6.63;4.20;;;7.50;60.10;;;;;;6224787;28;20599;-65
2021/04/10 04:07:23;;;;;;;4.43;4.03;;;7.50;60.40;;;;;;6224949;28;20476;-65
2021/04/10 04:10:25;;;;;;;5.00;4.57;;;7.40;60.70;;;;;;6225001;28;20588;-66
2021/04/10 04:13:28;;;;;;;5.07;4.67;;;7.40;60.70;;;;;;6224700;28;20475;-65
2021/04/10 04:16:30;;;;;;;7.47;4.00;;;7.40;60.90;;;;;;6224841;28;20749;-65
2021/04/10 04:19:33;;;;;;;6.20;5.17;;;7.40;60.80;;;;;;6227442;28;20784;-65
2021/04/10 04:22:35;;;;;;;5.87;4.40;;;7.40;60.80;;;;;;6229230;28;20754;-65
2021/04/10 04:25:37;;;;;;;4.33;3.93;;;7.40;60.90;;;;;;6229363;28;20454;-63
2021/04/10 04:28:39;;;;;;;4.47;4.03;;;7.40;61.00;;;;;;6229508;28;20444;-64
2021/04/10 04:31:42;;;;;;;5.70;5.17;;;7.50;60.90;;;;;;6229122;28;20479;-64
2021/04/10 04:34:45;;;;;;;5.20;4.70;;;7.40;60.80;;;;;;6229287;28;20459;-65
2021/04/10 04:37:47;;;;;;;6.63;4.43;;;7.50;60.90;;;;;;6228802;28;20447;-64
2021/04/10 04:40:49;;;;;;;10.77;5.10;;;7.50;61.00;;;;;;6228878;28;20459;-64
2021/04/10 04:43:51;;;;;;;5.27;4.53;;;7.50;60.80;;;;;;6228971;28;20472;-64
2021/04/10 04:46:53;;;;;;;6.63;3.97;;;7.50;60.80;;;;;;6228659;28;20958;-64
2021/04/10 04:49:57;;;;;;;6.50;5.00;;;7.60;60.70;;;;;;6228827;28;20969;-64
2021/04/10 04:52:59;;;;;;;5.17;4.70;;;7.60;60.50;;;;;;6228974;28;20479;-64
2021/04/10 04:56:01;;;;;;;8.37;4.80;;;7.60;60.20;;;;;;6228371;28;20800;-64
2021/04/10 04:59:03;;;;;;;10.27;4.77;;;7.70;60.40;;;;;;6228877;28;20487;-64
2021/04/10 05:02:05;;;;;;;5.20;4.00;;;7.80;60.40;;;;;;6228689;28;20478;-64
2021/04/10 05:05:10;;;;;;;5.60;3.83;;;7.80;60.30;;;;;;6228296;28;20471;-65
2021/04/10 05:08:12;;;;;;;5.17;4.60;;;7.80;60.20;;;;;;6228314;28;20995;-65
2021/04/10 05:11:15;;;;;;;5.20;4.70;;;7.80;60.10;;;;;;6228073;28;20960;-65
2021/04/10 05:14:17;;;;;;;5.00;4.50;;;7.90;60.00;;;;;;6228354;28;20468;-65
2021/04/10 05:17:21;;;;;;;4.57;4.13;;;7.90;59.80;;;;;;6228035;28;20495;-65
2021/04/10 05:20:24;;;;;;;5.40;4.90;;;8.00;59.70;;;;;;6228286;28;20482;-65
2021/04/10 05:23:26;;;;;;;6.77;4.10;;;7.90;59.70;;;;;;6228237;28;20472;-65
2021/04/10 05:26:28;;;;;;;4.63;4.23;;;8.00;59.60;;;;;;6228425;28;20463;-65
2021/04/10 05:29:31;;;;;;;5.23;4.73;;;8.00;59.50;;;;;;6228087;28;20472;-66
2021/04/10 05:32:33;;;;;;;6.70;4.60;;;8.10;59.50;;;;;;6227375;28;20967;-65
2021/04/10 05:35:37;;;;;;;5.47;4.43;;;8.20;59.90;;;;;;6227892;28;20479;-65
2021/04/10 05:38:39;;;;;;;5.50;4.20;;;8.30;58.90;;;;;;6227910;28;20487;-65
2021/04/10 05:41:41;;;;;;;6.27;4.50;;;8.40;58.70;;;;;;6227742;28;20482;-65
2021/04/10 05:44:43;;;;;;;4.57;4.03;;;8.50;58.40;;;;;;6227235;28;20499;-64
2021/04/10 05:47:45;;;;;;;8.70;5.07;;;8.60;58.30;;;;;;6226840;28;20472;-65
2021/04/10 05:50:48;;;;;;;4.30;3.90;;;8.70;57.70;;;;;;6227020;28;20477;-65
2021/04/10 05:53:50;;;;;;;7.83;4.63;;;8.70;57.70;;;;;;6226593;28;20468;-65
2021/04/10 05:56:52;;;;;;;6.83;4.57;;;8.80;57.50;;;;;;6226431;28;20814;-65
2021/04/10 05:59:55;;;;;;;5.70;4.50;;;8.90;57.40;;;;;;6226767;28;20483;-64
2021/04/10 06:02:57;;;;;;;6.53;4.60;;;9.10;57.20;;;;;;6226945;28;20475;-64
2021/04/10 06:06:00;;;;;;;5.77;4.23;;;9.60;56.10;;;;;;6226775;28;20479;-65
2021/04/10 06:09:03;;;;;;;5.93;5.40;;;10.60;53.50;;;;;;6227386;28;20468;-64
2021/04/10 06:12:06;;;;;;;4.87;4.30;;;11.40;51.90;;;;;;6227019;28;20471;-65
2021/04/10 06:15:10;;;;;;;7.57;5.03;;;12.30;49.90;;;;;;6227029;28;20475;-64
2021/04/10 06:18:12;;;;;;;4.77;4.30;;;13.20;48.10;;;;;;6226737;28;20479;-64
2021/04/10 06:21:15;;;;;;;13.00;6.70;;;13.50;46.30;;;;;;6226830;28;20471;-65
2021/04/10 06:24:18;;;;;;;6.60;4.70;;;14.00;45.70;;;;;;6226518;28;20479;-65
2021/04/10 06:27:20;;;;;;;5.17;4.77;;;14.70;44.70;;;;;;6226566;28;20578;-65
2021/04/10 06:30:23;;;;;;;4.60;4.20;;;15.30;43.20;;;;;;6226376;28;20476;-65
2021/04/10 06:33:25;;;;;;;8.90;4.63;;;16.00;41.60;;;;;;6226132;28;20480;-65
2021/04/10 06:36:28;;;;;;;6.73;4.80;;;16.80;40.80;;;;;;6226801;28;20472;-65
2021/04/10 06:39:30;;;;;;;7.97;5.80;;;17.50;38.80;;;;;;6226397;28;20815;-64
2021/04/10 06:42:33;;;;;;;9.33;6.67;;;18.20;38.10;;;;;;6225513;28;20519;-64
2021/04/10 06:45:35;;;;;;;10.40;6.83;;;19.30;37.20;;;;;;6226167;28;20812;-65
2021/04/10 06:48:40;;;;;;;9.80;6.47;;;20.70;35.20;;;;;;6226051;28;20233;-65
2021/04/10 06:51:43;;;;;;;7.07;6.43;;;21.50;33.90;;;;;;6225781;28;20251;-65
2021/04/10 06:54:48;;;;;;;10.43;6.20;;;21.10;33.00;;;;;;6226504;28;20241;-65
2021/04/10 06:57:57;;;;;;;8.90;6.50;;;20.90;33.00;;;;;;6226355;28;20254;-66
2021/04/10 07:00:59;;;;;;;7.47;6.57;;;21.30;32.90;;;;;;6225653;28;20563;-65
2021/04/10 07:04:02;;;;;;;7.50;6.80;;;22.10;31.70;;;;;;6225807;28;20558;-65
2021/04/10 07:07:05;;;;;;;6.63;5.50;;;22.90;30.60;;;;;;6226740;28;20229;-66
2021/04/10 07:10:08;;;;;;;7.07;6.37;;;23.90;29.70;;;;;;6226104;28;20262;-66
2021/04/10 07:13:10;;;;;;;8.33;6.17;;;25.00;28.80;;;;;;6225889;28;20689;-65
2021/04/10 07:16:13;;;;;;;13.40;6.70;;;26.10;28.00;;;;;;6225441;28;20680;-65
2021/04/10 07:19:16;;;;;;;7.40;5.60;;;26.80;26.60;;;;;;6225543;28;20573;-65
2021/04/10 07:22:19;;;;;;;8.50;5.70;;;27.40;25.90;;;;;;6226139;28;20251;-66
2021/04/10 07:25:23;;;;;;;7.47;6.07;;;28.40;24.70;;;;;;6225449;28;20228;-66
2021/04/10 07:28:28;;;;;;;6.50;5.83;;;29.40;24.20;;;;;;6225593;28;20370;-66
2021/04/10 07:31:33;;;;;;;6.50;5.90;;;30.20;23.40;;;;;;6225281;28;20243;-65
2021/04/10 07:34:45;;;;;;;5.70;3.80;;;31.10;22.30;;;;;;6225418;28;20239;-67
2021/04/10 07:37:49;;;;;;;5.30;4.80;;;32.10;20.90;;;;;;6224985;28;20629;-66
2021/04/10 07:40:52;;;;;;;8.25;4.75;;;32.80;20.00;;;;;;6225685;28;20224;-66
2021/04/10 07:43:56;;;;;;;4.82;4.28;;;33.90;19.40;;;;;;6222782;28;20224;-65
2021/04/10 07:47:04;;;;;;;4.25;3.83;;;34.00;18.90;;;;;;6224363;28;20216;-65
2021/04/10 07:50:20;;;;;;;7.63;4.45;;;34.60;18.40;;;;;;6224388;28;20678;-65
2021/04/10 07:53:25;;;;;;;4.03;3.72;;;34.80;17.90;;;;;;6224928;28;20228;-66
2021/04/10 07:56:47;;;;;;;6.15;4.47;;;34.80;17.60;;;;;;6230291;28;20224;-68
2021/04/10 07:59:53;;;;;;;5.55;3.70;;;34.10;18.00;;;;;;6230064;28;20224;-65
2021/04/10 08:02:56;;;;;;;5.40;3.70;;;34.10;17.70;;;;;;6230273;28;20224;-65
2021/04/10 08:06:13;;;;;;;3.83;3.53;;;35.00;17.30;;;;;;6226632;28;20220;-68
2021/04/10 08:09:30;;;;;;;7.93;4.18;;;36.10;16.90;;;;;;6226679;28;20231;-66
2021/04/10 08:12:34;;;;;;;5.15;3.45;;;36.80;16.50;;;;;;6262577;28;20234;-67
2021/04/10 08:15:37;;;;;;;4.25;3.53;;;38.20;16.10;;;;;;6260483;28;20378;-66
2021/04/10 08:18:49;;;;;;;5.35;3.40;;;38.10;15.40;;;;;;6253815;28;20238;-66
2021/04/10 08:21:52;;;;;;;4.38;3.97;;;38.00;15.60;;;;;;6246381;28;20231;-63
2021/04/10 08:24:55;;;;;;;4.75;4.30;;;37.80;15.60;;;;;;6247169;28;20234;-66
2021/04/10 08:27:58;;;;;;;5.22;4.82;;;39.10;15.40;;;;;;6237131;28;20302;-66
2021/04/10 08:31:00;;;;;;;5.05;4.65;;;39.00;15.20;;;;;;6250673;28;20232;-68
2021/04/10 08:34:04;;;;;;;6.40;5.35;;;37.50;16.00;;;;;;6253970;28;20300;-65
2021/04/10 08:37:09;;;;;;;6.28;5.68;;;35.60;17.00;;;;;;6238445;28;20567;-65
2021/04/10 08:40:14;;;;;;;6.90;6.30;;;35.50;17.40;;;;;;6249157;28;20605;-65
2021/04/10 08:43:18;;;;;;;9.68;6.30;;;35.60;17.30;;;;;;6253013;28;20224;-67
2021/04/10 08:46:21;;;;;;;7.90;5.80;;;35.70;17.20;;;;;;6253034;28;20235;-66
2021/04/10 08:49:24;;;;;;;8.18;6.95;;;34.30;18.00;;;;;;6253340;28;20232;-67
2021/04/10 08:52:32;;;;;;;7.38;6.05;;;34.00;18.50;;;;;;6247375;28;20234;-67
2021/04/10 08:55:39;;;;;;;8.77;6.78;;;34.50;18.70;;;;;;6252906;28;20204;-65
2021/04/10 08:58:42;;;;;;;6.25;5.65;;;34.10;19.00;;;;;;6253242;28;20628;-65
2021/04/10 09:02:04;;;;;;;6.93;6.32;;;33.60;19.30;;;;;;6252923;28;20219;-65
2021/04/10 09:05:07;;;;;;;9.85;6.35;;;32.00;20.20;;;;;;6252598;28;20365;-66
2021/04/10 09:08:21;;;;;;;6.20;5.70;;;30.80;21.10;;;;;;6253176;28;20278;-65
2021/04/10 09:11:24;;;;;;;6.90;6.20;;;30.30;21.60;;;;;;6253154;28;20244;-64
2021/04/10 09:14:42;;;;;;;6.83;6.23;;;29.80;21.90;;;;;;6245580;28;20232;-66
2021/04/10 09:17:55;;;;;;;6.43;5.80;;;28.90;22.70;;;;;;6277272;28;20234;-65
2021/04/10 09:21:09;;;;;;;8.30;6.37;;;28.70;23.10;;;;;;6277090;28;20231;-64
2021/04/10 09:24:25;;;;;;;11.60;7.20;;;28.10;23.60;;;;;;6277170;28;20679;-66
2021/04/10 09:27:29;;;;;;;6.87;6.17;;;28.40;23.30;;;;;;6277723;28;20270;-67
2021/04/10 09:30:37;;;;;;;7.33;6.40;;;28.30;23.20;;;;;;6263889;28;20223;-66
2021/04/10 09:33:39;;;;;;;6.60;6.00;;;27.70;23.40;;;;;;6252712;28;20232;-66
2021/04/10 09:36:45;;;;;;;7.63;6.93;;;26.40;24.60;;;;;;6252502;28;20329;-66
2021/04/10 09:39:51;;;;;;;6.73;6.13;;;25.10;26.50;;;;;;6253014;28;20224;-66
2021/04/10 09:43:03;;;;;;;9.80;6.77;;;25.10;26.00;;;;;;6251938;28;20684;-65
2021/04/10 09:46:32;;;;;;;8.37;6.53;;;24.90;26.30;;;;;;6251803;28;20239;-66
2021/04/10 09:49:37;;;;;;;6.87;6.27;;;24.60;27.00;;;;;;6227821;28;20204;-65
2021/04/10 09:52:40;;;;;;;7.20;5.63;;;25.70;26.50;;;;;;6228553;28;20204;-65
2021/04/10 09:55:45;;;;;;;7.50;6.70;;;26.60;25.60;;;;;;6227497;28;20201;-66
2021/04/10 09:58:55;;;;;;;7.10;6.40;;;27.00;24.80;;;;;;6227398;28;20208;-65
2021/04/10 10:01:57;;;;;;;6.27;5.70;;;26.60;24.70;;;;;;6235922;28;20227;-67
2021/04/10 10:05:00;;;;;;;7.27;6.57;;;26.40;25.10;;;;;;6251692;28;20316;-66
2021/04/10 10:08:03;;;;;;;6.43;5.80;;;26.40;25.20;;;;;;6251641;28;20223;-65
2021/04/10 10:11:07;;;;;;;7.63;5.93;;;26.40;25.90;;;;;;6251466;28;20227;-65
2021/04/10 10:14:10;;;;;;;5.80;5.30;;;26.10;25.30;;;;;;6250758;28;20381;-67
2021/04/10 10:17:14;;;;;;;6.87;5.87;;;26.00;25.60;;;;;;6275417;28;20235;-67
2021/04/10 10:20:21;;;;;;;7.20;6.30;;;25.90;25.80;;;;;;6276093;28;20238;-67
2021/04/10 10:23:25;;;;;;;6.80;5.73;;;25.80;25.80;;;;;;6275867;28;20253;-65
2021/04/10 10:26:28;;;;;;;6.77;6.07;;;25.70;26.00;;;;;;6275927;28;20231;-65
2021/04/10 10:29:32;;;;;;;6.23;5.60;;;25.50;26.10;;;;;;6270325;28;20668;-66
2021/04/10 10:32:34;;;;;;;5.43;4.67;;;25.40;26.00;;;;;;6251056;28;20236;-64
2021/04/10 10:35:37;;;;;;;8.50;5.23;;;25.30;26.20;;;;;;6250865;28;20231;-65
2021/04/10 10:38:41;;;;;;;6.13;5.53;;;25.10;26.40;;;;;;6251079;28;20307;-65
2021/04/10 10:41:44;;;;;;;6.13;5.20;;;25.00;26.10;;;;;;6250742;28;20247;-65
2021/04/10 10:44:49;;;;;;;6.43;5.73;;;24.20;26.20;;;;;;6250106;28;20599;-64
2021/04/10 10:47:51;;;;;;;6.40;5.90;;;23.60;27.00;;;;;;6250906;28;20224;-65
2021/04/10 10:51:02;;;;;;;7.80;5.60;;;23.80;27.10;;;;;;6250433;28;20220;-66
2021/04/10 10:54:06;;;;;;;5.73;5.20;;;23.30;26.80;;;;;;6249852;28;20668;-67
2021/04/10 10:57:10;;;;;;;6.10;4.63;;;23.10;27.10;;;;;;6249896;28;20228;-66
2021/04/10 11:00:33;;;;;;;7.50;5.70;;;22.90;27.20;;;;;;6247802;28;20224;-66
2021/04/10 11:03:35;;;;;;;6.60;6.00;;;22.90;26.50;;;;;;6247942;28;20259;-67
2021/04/10 11:06:43;;;;;;;6.20;5.37;;;22.90;26.50;;;;;;6248115;28;20231;-67
2021/04/10 11:09:50;;;;;;;5.10;4.70;;;22.90;26.20;;;;;;6247798;28;20266;-66
2021/04/10 11:12:52;;;;;;;6.27;4.83;;;22.80;25.20;;;;;;6247268;28;20232;-67
2021/04/10 11:15:56;;;;;;;5.30;4.80;;;22.60;25.70;;;;;;6225240;28;20614;-67
2021/04/10 11:19:01;;;;;;;5.83;5.33;;;22.80;25.90;;;;;;6223282;28;20229;-66
2021/04/10 11:22:05;;;;;;;8.00;5.30;;;23.20;25.90;;;;;;6223419;28;20840;-65
2021/04/10 11:25:09;;;;;;;4.80;4.40;;;23.40;25.60;;;;;;6223098;28;20244;-65
2021/04/10 11:28:29;;;;;;;6.97;5.30;;;23.40;24.80;;;;;;6223018;28;20687;-65
2021/04/10 11:31:33;;;;;;;5.60;5.10;;;23.40;25.20;;;;;;6222920;28;20245;-65
2021/04/10 11:34:36;;;;;;;6.30;4.87;;;23.70;25.20;;;;;;6198845;28;20255;-64
2021/04/10 11:37:45;;;;;;;6.57;5.70;;;23.60;25.30;;;;;;6228489;28;20550;-65
2021/04/10 11:40:47;;;;;;;6.10;5.07;;;23.70;26.00;;;;;;6242293;28;20184;-65
2021/04/10 11:43:53;;;;;;;6.30;5.80;;;23.50;25.80;;;;;;6247260;28;20775;-65
2021/04/10 11:47:02;;;;;;;6.30;4.80;;;23.30;26.10;;;;;;6238608;28;20220;-64
2021/04/10 11:50:10;;;;;;;6.00;5.30;;;23.40;25.60;;;;;;6247266;28;20224;-65
2021/04/10 11:53:14;;;;;;;5.70;4.90;;;23.20;25.70;;;;;;6247511;28;20229;-65
2021/04/10 11:56:26;;;;;;;8.73;5.37;;;23.30;26.00;;;;;;6247385;28;20347;-65
2021/04/10 11:59:32;;;;;;;6.57;5.70;;;23.80;25.90;;;;;;6246954;28;20688;-64
2021/04/10 12:02:37;;;;;;;5.00;4.60;;;23.80;25.20;;;;;;6247473;28;20240;-66
2021/04/10 12:05:41;;;;;;;6.20;5.60;;;24.10;25.40;;;;;;6246758;28;20228;-66
2021/04/10 12:08:43;;;;;;;5.80;5.20;;;24.30;25.50;;;;;;6247546;28;20250;-65
2021/04/10 12:11:46;;;;;;;5.30;4.80;;;23.90;25.60;;;;;;6247162;28;20228;-64
2021/04/10 12:14:48;;;;;;;6.20;4.70;;;23.70;25.80;;;;;;6233403;28;20558;-66
2021/04/10 12:17:51;;;;;;;6.47;4.53;;;23.60;25.50;;;;;;6222771;28;20272;-64
2021/04/10 12:20:54;;;;;;;7.70;5.17;;;23.30;25.80;;;;;;6222791;28;20238;-66
2021/04/10 12:23:57;;;;;;;6.17;5.20;;;22.90;26.20;;;;;;6230419;28;20220;-64
2021/04/10 12:26:59;;;;;;;6.07;5.47;;;23.00;26.60;;;;;;6246907;28;20228;-68
2021/04/10 12:30:01;;;;;;;7.77;4.70;;;23.10;26.70;;;;;;6246958;28;20232;-66
2021/04/10 12:33:04;;;;;;;5.27;4.80;;;23.00;26.30;;;;;;6246656;28;20237;-66
2021/04/10 12:36:07;;;;;;;6.60;5.73;;;23.10;26.70;;;;;;6246830;28;20793;-66
2021/04/10 12:39:10;;;;;;;7.23;6.63;;;23.20;26.60;;;;;;6241069;28;20224;-64
2021/04/10 12:42:12;;;;;;;7.33;5.00;;;23.20;26.40;;;;;;6250145;28;20251;-65
2021/04/10 12:45:16;;;;;;;6.13;5.53;;;23.40;25.90;;;;;;6250944;28;20228;-65
2021/04/10 12:48:19;;;;;;;5.80;5.10;;;23.80;26.50;;;;;;6251036;28;20238;-64
2021/04/10 12:51:21;;;;;;;6.00;5.40;;;24.10;26.30;;;;;;6239116;28;20695;-63
2021/04/10 12:54:26;;;;;;;6.40;5.50;;;24.00;26.10;;;;;;6250785;28;20266;-66
2021/04/10 12:57:28;;;;;;;6.57;5.83;;;23.50;26.90;;;;;;6250762;28;20224;-64
2021/04/10 13:00:31;;;;;;;6.77;6.17;;;23.40;26.80;;;;;;6250799;28;20232;-65
2021/04/10 13:03:34;;;;;;;6.50;5.90;;;23.10;27.30;;;;;;6250403;28;20236;-64
2021/04/10 13:06:39;;;;;;;7.10;6.03;;;23.10;27.30;;;;;;6250992;28;20228;-66
2021/04/10 13:09:44;;;;;;;6.57;5.97;;;23.30;27.30;;;;;;6253310;28;20309;-66
2021/04/10 13:12:46;;;;;;;7.27;6.60;;;23.30;27.60;;;;;;6251535;28;20633;-65
2021/04/10 13:15:48;;;;;;;6.47;5.70;;;22.40;28.10;;;;;;6252202;28;20232;-65
2021/04/10 13:18:52;;;;;;;6.97;5.70;;;22.20;28.70;;;;;;6252395;28;20698;-65
2021/04/10 13:21:54;;;;;;;6.50;5.90;;;22.20;28.70;;;;;;6252523;28;20297;-67
2021/04/10 13:24:56;;;;;;;5.90;5.37;;;22.20;29.00;;;;;;6252014;28;20228;-63
2021/04/10 13:27:58;;;;;;;5.87;5.10;;;21.60;29.70;;;;;;6252146;28;20232;-64
2021/04/10 13:31:01;;;;;;;6.43;5.77;;;21.80;29.70;;;;;;6251534;28;20287;-66
2021/04/10 13:34:04;;;;;;;5.70;5.10;;;21.90;29.10;;;;;;6251426;28;20315;-63
2021/04/10 13:37:06;;;;;;;6.27;5.20;;;22.10;29.10;;;;;;6252077;28;20256;-65
2021/04/10 13:40:09;;;;;;;5.27;4.77;;;22.10;29.10;;;;;;6252123;28;20651;-65
2021/04/10 13:43:11;;;;;;;5.47;4.90;;;22.00;28.50;;;;;;6223581;28;20233;-64
2021/04/10 13:46:23;;;;;;;7.07;4.87;;;21.70;28.90;;;;;;6251913;28;20229;-64
2021/04/10 13:49:26;;;;;;;6.33;5.67;;;21.40;29.00;;;;;;6251617;28;20232;-65
2021/04/10 13:52:28;;;;;;;6.67;5.60;;;21.20;29.50;;;;;;6251316;28;20228;-65
2021/04/10 13:55:32;;;;;;;5.43;4.97;;;21.00;29.20;;;;;;6251486;28;20232;-65
2021/04/10 13:58:34;;;;;;;5.37;4.73;;;21.00;29.30;;;;;;6251214;28;20216;-65
2021/04/10 14:01:36;;;;;;;5.10;4.70;;;20.80;29.40;;;;;;6251757;28;20204;-66
2021/04/10 14:05:07;;;;;;;7.90;4.50;;;20.40;29.90;;;;;;6251669;28;20221;-65
2021/04/10 14:08:10;;;;;;;5.20;4.33;;;20.60;29.20;;;;;;6251611;28;20337;-66
2021/04/10 14:11:12;;;;;;;6.77;4.60;;;20.60;29.10;;;;;;6251678;28;20239;-65
2021/04/10 14:14:15;;;;;;;4.93;4.50;;;20.40;28.40;;;;;;6250879;28;20562;-65
2021/04/10 14:17:17;;;;;;;7.50;4.77;;;20.30;28.70;;;;;;6251678;28;20534;-65
2021/04/10 14:20:24;;;;;;;4.70;4.30;;;20.30;28.90;;;;;;6251109;28;20227;-64
2021/04/10 14:23:31;;;;;;;4.40;4.00;;;19.90;29.00;;;;;;6251081;28;20277;-64
2021/04/10 14:26:33;;;;;;;5.20;4.70;;;19.90;28.60;;;;;;6249403;28;20228;-64
2021/04/10 14:29:40;;;;;;;8.43;4.50;;;19.90;28.70;;;;;;6249738;28;20234;-64
2021/04/10 14:32:43;;;;;;;4.07;3.77;;;19.90;29.00;;;;;;6249903;28;20342;-64
2021/04/10 14:35:49;;;;;;;7.70;4.47;;;19.80;29.10;;;;;;6250032;28;20239;-63
2021/04/10 14:38:52;;;;;;;5.50;3.60;;;20.00;28.60;;;;;;6250462;28;20237;-63
2021/04/10 14:41:55;;;;;;;5.63;4.70;;;19.70;28.50;;;;;;6251138;28;20232;-64
2021/04/10 14:44:57;;;;;;;6.33;5.70;;;19.50;29.20;;;;;;6245725;28;20243;-63
2021/04/10 14:48:00;;;;;;;5.87;5.37;;;19.50;29.80;;;;;;6242844;28;20308;-64
2021/04/10 14:51:04;;;;;;;5.37;4.87;;;19.50;29.80;;;;;;6227119;28;20315;-64
2021/04/10 14:54:07;;;;;;;7.20;4.97;;;19.50;29.90;;;;;;6237447;28;20557;-61
2021/04/10 14:57:09;;;;;;;5.67;4.70;;;19.50;30.80;;;;;;6249705;28;20243;-62
2021/04/10 15:00:12;;;;;;;6.33;5.00;;;19.50;29.60;;;;;;6250529;28;20235;-64
2021/04/10 15:03:14;;;;;;;5.90;4.77;;;19.50;29.50;;;;;;6251274;28;20239;-65
2021/04/10 15:06:18;;;;;;;9.20;6.37;;;19.40;29.70;;;;;;6252178;28;20227;-64
2021/04/10 15:09:20;;;;;;;6.50;5.90;;;19.40;30.00;;;;;;6249869;28;20555;-63
2021/04/10 15:12:22;;;;;;;9.03;5.47;;;19.40;30.00;;;;;;6252158;28;20552;-66
2021/04/10 15:15:24;;;;;;;6.73;5.33;;;19.40;30.10;;;;;;6254310;28;20374;-66
2021/04/10 15:18:29;;;;;;;7.63;6.00;;;19.60;30.20;;;;;;6254494;28;20724;-66
2021/04/10 15:21:34;;;;;;;5.53;4.93;;;19.60;30.00;;;;;;6256377;28;20224;-66
2021/04/10 15:24:36;;;;;;;5.50;4.87;;;19.60;30.00;;;;;;6255864;28;20248;-65
2021/04/10 15:27:39;;;;;;;5.00;4.53;;;19.70;29.90;;;;;;6252142;28;20311;-66
2021/04/10 15:30:41;;;;;;;9.27;5.53;;;19.80;29.80;;;;;;6252428;28;20232;-66
2021/04/10 15:33:47;;;;;;;5.83;5.20;;;19.90;29.80;;;;;;6249924;28;20228;-65
2021/04/10 15:36:50;;;;;;;6.03;5.30;;;19.90;29.60;;;;;;6252085;28;20700;-65
2021/04/10 15:39:52;;;;;;;8.53;5.50;;;19.90;29.50;;;;;;6250156;28;20307;-64
2021/04/10 15:42:54;;;;;;;5.77;5.27;;;20.00;29.40;;;;;;6250145;28;20341;-65
2021/04/10 15:45:57;;;;;;;5.53;4.93;;;19.90;29.30;;;;;;6252017;28;20664;-65
2021/04/10 15:48:59;;;;;;;5.63;5.07;;;19.90;29.30;;;;;;6244937;28;20220;-65
2021/04/10 15:52:05;;;;;;;6.40;5.40;;;19.90;28.80;;;;;;6254205;28;20344;-64
2021/04/10 15:55:08;;;;;;;5.10;4.60;;;19.70;29.10;;;;;;6252023;28;20232;-64
2021/04/10 15:58:10;;;;;;;7.90;5.00;;;19.80;29.20;;;;;;6251795;28;20235;-65
2021/04/10 16:01:12;;;;;;;6.03;5.40;;;19.90;29.10;;;;;;6250599;28;20250;-65
2021/04/10 16:04:17;;;;;;;6.83;5.70;;;19.80;29.10;;;;;;6250498;28;20735;-65